Terminal Aerodrome Forecast
Issued by NWS Charleston, WV

Home | Current Version | Previous Version | Text Only | Print | Product List | Glossary On
Versions: 1 2 3 4 5 6 7 8 9 10 11 12 13 14 15 16
000
FTUS41 KRLX 281500 AAB
TAFPKB
TAF AMD
KPKB 281509Z 2815/2912 26008KT 4SM BR OVC006
     FM281700 31004KT 4SM BR OVC012
     FM290200 VRB03KT P6SM OVC035=

USA.gov is the U.S. government's official web portal to all federal, state and local government web resources and services.